Time;durP1;ratioP1;P1;durP2;ratioP2;P2;SDS_P1;SDS_P2;PMS_P1;PMS_P2;Temp;Humidity;BMP_temperature;BMP_pressure;BME280_temperature;BME280_humidity;BME280_pressure;Samples;Min_cycle;Max_cycle;Signal;HPM_P1;HPM_P2
2023/09/27 00:03:21;;;;;;;5.70;3.08;;;21.70;78.30;;;;;;10826241;33;20413;-72
2023/09/27 00:09:23;;;;;;;3.90;2.22;;;21.70;78.30;;;;;;10825403;33;20016;-72
2023/09/27 00:15:25;;;;;;;5.68;3.53;;;21.60;78.50;;;;;;10823288;33;20020;-70
2023/09/27 00:21:27;;;;;;;5.85;2.97;;;21.60;78.60;;;;;;10825846;32;20079;-71
2023/09/27 00:27:29;;;;;;;3.65;2.67;;;21.50;79.00;;;;;;10824955;33;20021;-70
2023/09/27 00:33:31;;;;;;;4.40;2.40;;;21.40;78.90;;;;;;10825682;33;20031;-71
2023/09/27 00:39:36;;;;;;;3.72;2.42;;;21.40;78.90;;;;;;10825658;33;20416;-71
2023/09/27 00:45:39;;;;;;;6.85;2.95;;;21.30;78.90;;;;;;10824573;33;20043;-71
2023/09/27 00:51:43;;;;;;;6.10;3.10;;;21.30;78.80;;;;;;10824471;33;20386;-71
2023/09/27 00:57:45;;;;;;;3.62;2.70;;;21.30;78.90;;;;;;10824735;33;20023;-71
2023/09/27 01:03:48;;;;;;;3.92;2.60;;;21.30;79.10;;;;;;10822113;33;20437;-71
2023/09/27 01:09:50;;;;;;;3.35;2.60;;;21.30;79.10;;;;;;10824518;33;20054;-70
2023/09/27 01:15:53;;;;;;;5.37;2.60;;;21.20;79.20;;;;;;10823798;33;20020;-71
2023/09/27 01:21:55;;;;;;;4.22;2.70;;;21.20;79.20;;;;;;10822808;33;20020;-71
2023/09/27 01:28:09;;;;;;;3.33;2.50;;;21.10;79.30;;;;;;10824096;33;20386;-71
2023/09/27 01:34:11;;;;;;;4.10;2.78;;;21.00;79.40;;;;;;10827135;32;20318;-71
2023/09/27 01:40:20;;;;;;;5.75;3.28;;;21.00;79.50;;;;;;10829640;33;20016;-71
2023/09/27 01:46:22;;;;;;;3.55;2.47;;;21.00;79.50;;;;;;10829460;32;20042;-71
2023/09/27 01:52:24;;;;;;;5.12;3.15;;;20.90;79.50;;;;;;10829243;33;20012;-71
2023/09/27 01:58:27;;;;;;;4.65;2.72;;;20.80;79.60;;;;;;10829260;33;20047;-71
2023/09/27 02:04:29;;;;;;;4.22;2.55;;;20.80;79.70;;;;;;10830312;33;20039;-71
2023/09/27 02:10:31;;;;;;;3.30;2.30;;;20.80;79.70;;;;;;10830162;33;20047;-71
2023/09/27 02:16:33;;;;;;;13.45;4.18;;;20.80;79.70;;;;;;10826712;33;20054;-71
2023/09/27 02:22:36;;;;;;;8.57;3.67;;;20.70;79.70;;;;;;10828698;33;20025;-71
2023/09/27 02:28:39;;;;;;;5.30;3.45;;;20.60;79.90;;;;;;10828377;33;20042;-71
2023/09/27 02:34:42;;;;;;;6.25;2.75;;;20.70;79.90;;;;;;10828041;33;20046;-71
2023/09/27 02:40:45;;;;;;;3.42;2.47;;;20.50;79.90;;;;;;10827076;33;20032;-71
2023/09/27 02:46:47;;;;;;;4.50;3.10;;;20.50;80.00;;;;;;10827438;32;20074;-71
2023/09/27 02:52:49;;;;;;;4.75;2.15;;;20.50;80.10;;;;;;10827574;33;20016;-71
2023/09/27 02:58:51;;;;;;;4.20;2.45;;;20.50;80.60;;;;;;10827431;33;20024;-71
2023/09/27 03:04:55;;;;;;;5.18;3.35;;;20.50;80.60;;;;;;10827245;33;20023;-71
2023/09/27 03:11:03;;;;;;;6.25;2.85;;;20.40;80.50;;;;;;10827049;33;20063;-71
2023/09/27 03:17:05;;;;;;;2.30;1.80;;;20.30;80.50;;;;;;10826722;33;20028;-71
2023/09/27 03:23:08;;;;;;;4.12;3.00;;;20.30;80.60;;;;;;10826764;33;20082;-71
2023/09/27 03:29:10;;;;;;;4.10;2.12;;;20.20;80.60;;;;;;10826628;33;20043;-71
2023/09/27 03:35:12;;;;;;;3.33;2.15;;;20.10;80.60;;;;;;10826407;33;20050;-71
2023/09/27 03:41:14;;;;;;;3.35;2.33;;;20.10;80.60;;;;;;10826169;33;20012;-71
2023/09/27 03:47:16;;;;;;;4.55;2.95;;;20.10;80.60;;;;;;10825907;33;20028;-71
2023/09/27 03:53:20;;;;;;;4.90;3.53;;;20.10;80.60;;;;;;10825743;33;20020;-71
2023/09/27 03:59:23;;;;;;;5.07;3.30;;;20.10;80.60;;;;;;10825123;32;20424;-71
2023/09/27 04:05:27;;;;;;;6.87;3.92;;;20.10;80.60;;;;;;10825666;33;20034;-71
2023/09/27 04:11:32;;;;;;;4.12;3.30;;;20.10;80.60;;;;;;10824431;33;20020;-71
2023/09/27 04:17:34;;;;;;;4.28;3.22;;;20.10;80.70;;;;;;10825059;33;20016;-71
2023/09/27 04:23:36;;;;;;;4.05;2.83;;;20.10;80.70;;;;;;10824916;33;20015;-71
2023/09/27 04:29:38;;;;;;;4.60;2.87;;;20.10;80.80;;;;;;10823874;33;20081;-71
2023/09/27 04:35:41;;;;;;;4.30;2.72;;;20.10;80.80;;;;;;10824556;33;20047;-71
2023/09/27 04:41:46;;;;;;;4.50;3.10;;;20.10;80.80;;;;;;10823536;33;20054;-71
2023/09/27 04:47:48;;;;;;;6.93;4.15;;;20.10;80.90;;;;;;10824351;33;20437;-71
2023/09/27 04:53:50;;;;;;;4.28;2.78;;;20.10;80.90;;;;;;10823142;33;20412;-71
2023/09/27 04:59:52;;;;;;;3.95;2.70;;;20.00;80.80;;;;;;10823904;33;20012;-71
2023/09/27 05:05:55;;;;;;;3.95;2.62;;;20.00;80.90;;;;;;10824590;32;20330;-71
2023/09/27 05:11:57;;;;;;;4.65;2.67;;;19.90;80.90;;;;;;10829602;33;20109;-71
2023/09/27 05:17:59;;;;;;;3.30;2.33;;;19.90;81.00;;;;;;10829253;33;20054;-71
2023/09/27 05:24:38;;;;;;;4.40;2.85;;;19.90;81.00;;;;;;10828996;33;20055;-71
2023/09/27 05:31:05;;;;;;;7.53;3.47;;;19.80;80.90;;;;;;10831453;32;20032;-71
2023/09/27 05:37:08;;;;;;;3.80;2.35;;;19.80;81.00;;;;;;10829615;33;20016;-71
2023/09/27 05:43:12;;;;;;;5.82;3.20;;;19.90;80.90;;;;;;10828580;33;20011;-71
2023/09/27 05:49:15;;;;;;;2.22;1.85;;;19.90;80.90;;;;;;10829442;33;20020;-71
2023/09/27 05:55:44;;;;;;;5.97;2.53;;;20.00;80.90;;;;;;10829389;32;20329;-71
2023/09/27 06:01:47;;;;;;;2.62;1.92;;;20.00;80.90;;;;;;10827747;33;20073;-71
2023/09/27 06:07:55;;;;;;;3.62;2.22;;;20.10;80.80;;;;;;10828076;33;20419;-71
2023/09/27 06:13:58;;;;;;;3.42;2.53;;;20.10;80.80;;;;;;10828365;33;20024;-71
2023/09/27 06:20:05;;;;;;;4.60;3.33;;;20.30;80.80;;;;;;10826882;32;20035;-71
2023/09/27 06:26:29;;;;;;;6.75;3.15;;;20.30;80.70;;;;;;10828346;33;20020;-71
2023/09/27 06:32:31;;;;;;;3.45;2.30;;;20.40;80.70;;;;;;10828021;33;20046;-71
2023/09/27 06:38:34;;;;;;;9.10;3.33;;;20.50;80.70;;;;;;10827939;33;20054;-71
2023/09/27 06:44:36;;;;;;;2.72;1.73;;;20.60;80.50;;;;;;10828748;33;20408;-72
2023/09/27 06:50:41;;;;;;;3.05;2.30;;;20.70;80.50;;;;;;10946716;27;20080;-72
2023/09/27 06:56:43;;;;;;;4.90;2.62;;;20.70;80.60;;;;;;10982981;32;20045;-71
2023/09/27 07:02:48;;;;;;;4.32;3.12;;;20.80;80.70;;;;;;10982825;32;20060;-71
2023/09/27 07:08:52;;;;;;;7.15;3.20;;;21.00;81.00;;;;;;10982443;32;20049;-72
2023/09/27 07:14:54;;;;;;;3.40;2.10;;;21.10;81.10;;;;;;10968411;32;20061;-71
2023/09/27 07:20:56;;;;;;;4.22;2.42;;;21.30;81.50;;;;;;10982187;32;20336;-72
2023/09/27 07:26:58;;;;;;;4.00;2.30;;;21.40;81.40;;;;;;10982059;32;20050;-71
2023/09/27 07:33:11;;;;;;;3.78;2.45;;;21.60;80.90;;;;;;10980916;32;20064;-71
2023/09/27 07:39:14;;;;;;;4.45;2.95;;;21.80;80.80;;;;;;10968740;32;20022;-71
2023/09/27 07:45:22;;;;;;;5.75;3.47;;;21.90;80.30;;;;;;10981754;32;20018;-71
2023/09/27 07:51:24;;;;;;;6.78;3.42;;;22.00;80.20;;;;;;10844627;32;20023;-72
2023/09/27 07:57:27;;;;;;;8.70;2.45;;;22.10;80.10;;;;;;10826231;33;20028;-71
2023/09/27 08:03:29;;;;;;;7.70;2.80;;;22.20;79.60;;;;;;10826891;33;20074;-71
2023/09/27 08:09:31;;;;;;;4.80;3.42;;;22.30;79.50;;;;;;10812155;33;20035;-71
2023/09/27 08:15:33;;;;;;;5.55;2.10;;;22.40;79.40;;;;;;10825210;33;20032;-72
2023/09/27 08:21:35;;;;;;;3.72;2.55;;;22.60;78.90;;;;;;10811784;33;20044;-72
2023/09/27 08:27:37;;;;;;;5.40;2.42;;;22.80;78.40;;;;;;10812393;33;20020;-70
2023/09/27 08:33:39;;;;;;;4.57;3.15;;;22.80;77.80;;;;;;10807066;33;20036;-71
2023/09/27 08:39:42;;;;;;;6.93;3.70;;;22.90;77.00;;;;;;10824735;33;20042;-72
2023/09/27 08:45:46;;;;;;;4.03;2.80;;;23.00;76.70;;;;;;10811512;33;20028;-72
2023/09/27 08:51:49;;;;;;;5.30;2.92;;;23.30;76.50;;;;;;10823612;33;20421;-72
2023/09/27 08:57:52;;;;;;;8.75;3.37;;;23.50;75.40;;;;;;10822806;33;20058;-71
2023/09/27 09:03:56;;;;;;;8.10;3.58;;;23.60;73.90;;;;;;10810203;32;20050;-70
2023/09/27 09:09:58;;;;;;;4.47;3.30;;;23.80;73.60;;;;;;10824067;33;20162;-71
2023/09/27 09:16:13;;;;;;;3.55;2.17;;;23.90;72.40;;;;;;10811530;32;20031;-71
2023/09/27 09:22:16;;;;;;;6.15;3.72;;;24.10;71.60;;;;;;10823476;33;20019;-70
2023/09/27 09:28:20;;;;;;;7.87;3.58;;;24.20;69.60;;;;;;10823476;33;20042;-71
2023/09/27 09:34:23;;;;;;;9.18;3.35;;;24.30;69.50;;;;;;10823893;33;20046;-70
2023/09/27 09:40:25;;;;;;;14.15;4.28;;;24.60;69.90;;;;;;10822388;33;20024;-70
2023/09/27 09:46:52;;;;;;;5.50;3.70;;;24.70;69.40;;;;;;10830654;32;20015;-71
2023/09/27 09:52:58;;;;;;;5.53;3.10;;;24.80;67.60;;;;;;10980097;32;20049;-69
2023/09/27 09:59:03;;;;;;;6.45;2.92;;;25.00;66.70;;;;;;10985598;32;20045;-70
2023/09/27 10:05:07;;;;;;;7.35;3.35;;;25.10;67.10;;;;;;10971092;32;20082;-71
2023/09/27 10:11:10;;;;;;;11.35;4.18;;;25.20;65.90;;;;;;10961772;32;20416;-70
2023/09/27 10:17:22;;;;;;;6.55;3.17;;;25.30;65.50;;;;;;10945700;32;20053;-70
2023/09/27 10:23:26;;;;;;;10.20;4.35;;;25.50;66.40;;;;;;10946861;32;20044;-70
2023/09/27 10:29:29;;;;;;;12.60;3.42;;;25.60;66.60;;;;;;10947810;32;20073;-75
2023/09/27 10:35:33;;;;;;;4.97;3.03;;;25.80;65.20;;;;;;10933547;32;20333;-77
2023/09/27 10:41:38;;;;;;;7.15;3.12;;;25.80;64.90;;;;;;10945887;32;20023;-75
2023/09/27 10:47:40;;;;;;;10.32;4.07;;;26.00;65.50;;;;;;10903176;32;20024;-75
2023/09/27 10:53:43;;;;;;;10.55;4.18;;;26.20;67.20;;;;;;10788978;33;20424;-74
2023/09/27 10:59:49;;;;;;;9.18;4.20;;;26.40;66.50;;;;;;10787183;33;20032;-75
2023/09/27 11:05:51;;;;;;;10.07;4.30;;;26.70;64.40;;;;;;10786288;33;20058;-75
2023/09/27 11:11:54;;;;;;;4.00;2.83;;;26.80;66.10;;;;;;10791310;33;20193;-75
2023/09/27 11:17:56;;;;;;;6.78;3.03;;;27.00;63.70;;;;;;10789171;33;20402;-76
2023/09/27 11:24:00;;;;;;;7.50;3.08;;;27.20;63.10;;;;;;10786202;33;20401;-75
2023/09/27 11:30:03;;;;;;;6.22;2.83;;;27.40;61.30;;;;;;10785798;33;20024;-75
2023/09/27 11:36:06;;;;;;;7.53;3.37;;;27.50;61.10;;;;;;10790802;33;20028;-75
2023/09/27 11:42:08;;;;;;;8.00;3.33;;;27.60;63.50;;;;;;10790163;33;20056;-76
2023/09/27 11:48:11;;;;;;;11.55;3.70;;;27.70;61.80;;;;;;10776184;33;20031;-75
2023/09/27 11:54:13;;;;;;;17.23;4.60;;;27.60;62.60;;;;;;10790185;33;20015;-75
2023/09/27 12:00:19;;;;;;;6.65;3.35;;;27.50;61.30;;;;;;10790161;33;20047;-75
2023/09/27 12:06:21;;;;;;;5.80;2.95;;;27.50;63.50;;;;;;10784926;33;20024;-75
2023/09/27 12:12:23;;;;;;;10.93;4.03;;;27.50;64.10;;;;;;10788438;33;20028;-74
2023/09/27 12:18:26;;;;;;;5.05;2.53;;;27.40;60.80;;;;;;10787713;33;20051;-74
2023/09/27 12:24:33;;;;;;;10.65;3.85;;;27.30;61.00;;;;;;10787460;33;20078;-74
2023/09/27 12:30:55;;;;;;;11.20;2.22;;;27.30;59.60;;;;;;10788094;33;20043;-74
2023/09/27 12:36:57;;;;;;;6.25;3.08;;;27.30;58.30;;;;;;10774357;33;20040;-75
2023/09/27 12:43:01;;;;;;;6.25;3.30;;;27.30;60.90;;;;;;10770293;33;20338;-74
2023/09/27 12:49:03;;;;;;;5.30;2.65;;;27.30;59.30;;;;;;10774830;33;20047;-74
2023/09/27 12:55:05;;;;;;;7.93;4.40;;;27.30;57.80;;;;;;10773733;33;20346;-74
2023/09/27 13:01:07;;;;;;;10.60;3.03;;;27.30;56.90;;;;;;10804523;33;20023;-75
2023/09/27 13:07:17;;;;;;;8.40;3.25;;;27.30;57.20;;;;;;10824095;33;20402;-73
2023/09/27 13:13:31;;;;;;;18.80;4.28;;;27.30;58.10;;;;;;10822466;33;20357;-75
2023/09/27 13:19:33;;;;;;;8.63;2.95;;;27.40;61.70;;;;;;10822825;33;20067;-72
2023/09/27 13:25:36;;;;;;;8.02;2.72;;;27.40;59.10;;;;;;10823828;33;20024;-74
2023/09/27 13:31:38;;;;;;;6.53;2.90;;;27.40;59.90;;;;;;10825940;32;20046;-74
2023/09/27 13:37:40;;;;;;;7.37;3.42;;;27.40;58.70;;;;;;10830093;33;20051;-74
2023/09/27 13:43:42;;;;;;;5.87;3.08;;;27.40;57.10;;;;;;10830746;33;20020;-76
2023/09/27 13:49:44;;;;;;;5.40;2.45;;;27.40;54.90;;;;;;10816032;33;20024;-74
2023/09/27 13:55:47;;;;;;;6.47;2.95;;;27.50;57.40;;;;;;10825834;33;20019;-72
2023/09/27 14:01:49;;;;;;;8.90;3.12;;;27.50;55.20;;;;;;10815510;33;20067;-73
2023/09/27 14:07:51;;;;;;;5.32;3.30;;;27.60;56.30;;;;;;10802227;33;20295;-73
2023/09/27 14:14:18;;;;;;;4.00;2.50;;;27.60;56.60;;;;;;10815561;33;20059;-73
2023/09/27 14:20:23;;;;;;;5.18;1.95;;;27.70;56.70;;;;;;10829407;33;20428;-75
2023/09/27 14:26:25;;;;;;;5.75;2.08;;;27.80;55.50;;;;;;10829176;33;20332;-74
2023/09/27 14:32:27;;;;;;;7.28;2.45;;;27.80;55.00;;;;;;10828746;33;20015;-75
2023/09/27 14:38:34;;;;;;;5.47;2.62;;;27.80;54.10;;;;;;10816295;32;20394;-73
2023/09/27 14:44:36;;;;;;;8.40;2.95;;;27.90;54.50;;;;;;10828058;33;20020;-74
2023/09/27 14:50:39;;;;;;;3.28;2.05;;;28.00;54.80;;;;;;10789085;27;20098;-73
2023/09/27 14:56:44;;;;;;;3.85;2.03;;;28.00;54.40;;;;;;10790796;33;20062;-74
2023/09/27 15:02:53;;;;;;;5.07;2.50;;;28.10;53.80;;;;;;10792547;33;20017;-74
2023/09/27 15:08:56;;;;;;;4.70;2.62;;;28.20;53.00;;;;;;10777012;33;20032;-75
2023/09/27 15:15:00;;;;;;;6.78;2.72;;;28.20;52.20;;;;;;10791540;33;20055;-74
2023/09/27 15:21:02;;;;;;;8.20;3.28;;;28.20;51.60;;;;;;10791325;33;20016;-74
2023/09/27 15:27:04;;;;;;;10.23;2.15;;;28.20;51.80;;;;;;10778560;33;20451;-74
2023/09/27 15:33:08;;;;;;;6.93;3.47;;;28.90;50.70;;;;;;10789578;33;20020;-73
2023/09/27 15:39:11;;;;;;;10.48;3.22;;;30.00;48.90;;;;;;10790379;33;20025;-74
2023/09/27 15:45:14;;;;;;;5.87;2.58;;;30.80;47.80;;;;;;10790158;33;20020;-75
2023/09/27 15:51:16;;;;;;;10.93;2.53;;;31.30;47.30;;;;;;10788160;33;20028;-75
2023/09/27 15:57:19;;;;;;;7.60;2.17;;;30.40;49.00;;;;;;10773416;33;20024;-74
2023/09/27 16:03:21;;;;;;;3.08;1.98;;;29.60;50.10;;;;;;10751901;33;20029;-74
2023/09/27 16:09:23;;;;;;;5.10;2.70;;;29.10;50.90;;;;;;10752581;33;20024;-74
2023/09/27 16:15:26;;;;;;;4.80;1.70;;;29.00;50.70;;;;;;10752350;33;20304;-74
2023/09/27 16:21:28;;;;;;;3.35;1.50;;;29.70;50.00;;;;;;10740376;33;20043;-74
2023/09/27 16:27:31;;;;;;;2.45;1.45;;;29.90;49.90;;;;;;10751469;33;20033;-74
2023/09/27 16:33:35;;;;;;;6.28;2.22;;;29.00;51.40;;;;;;10752502;33;20021;-74
2023/09/27 16:39:54;;;;;;;4.45;2.10;;;28.30;52.80;;;;;;10757112;32;20064;-74
2023/09/27 16:45:57;;;;;;;6.93;2.58;;;27.80;53.50;;;;;;10979425;32;20333;-74
2023/09/27 16:51:59;;;;;;;2.90;2.10;;;27.30;54.00;;;;;;10961698;32;20089;-74
2023/09/27 16:58:04;;;;;;;4.75;2.20;;;27.10;54.20;;;;;;10965316;32;20430;-74
2023/09/27 17:04:07;;;;;;;5.07;2.08;;;26.80;54.60;;;;;;10986841;32;20023;-74
2023/09/27 17:10:10;;;;;;;6.30;2.10;;;26.40;55.40;;;;;;10991702;32;20050;-74
2023/09/27 17:16:18;;;;;;;3.15;1.52;;;26.30;56.00;;;;;;10992768;32;20027;-74
2023/09/27 17:22:26;;;;;;;9.68;3.53;;;26.10;56.30;;;;;;10991567;32;20041;-74
2023/09/27 17:28:28;;;;;;;5.00;2.25;;;25.90;56.90;;;;;;10990370;32;20364;-74
2023/09/27 17:34:44;;;;;;;6.60;2.08;;;25.60;58.40;;;;;;10991118;32;20041;-75
2023/09/27 17:40:47;;;;;;;3.85;1.67;;;25.30;59.10;;;;;;10991546;32;20355;-74
2023/09/27 17:46:49;;;;;;;15.43;2.25;;;25.30;59.30;;;;;;10990902;32;20027;-74
2023/09/27 17:52:52;;;;;;;4.72;2.25;;;25.20;59.60;;;;;;10986647;32;20049;-74
2023/09/27 17:58:55;;;;;;;3.22;1.80;;;25.00;60.50;;;;;;10990635;32;20048;-74
2023/09/27 18:04:57;;;;;;;14.95;2.80;;;24.80;60.50;;;;;;10990416;32;20011;-74
2023/09/27 18:11:07;;;;;;;4.25;2.20;;;24.80;60.60;;;;;;10990114;32;20046;-74
2023/09/27 18:17:09;;;;;;;10.88;2.67;;;24.70;60.60;;;;;;10985294;32;20447;-75
2023/09/27 18:23:18;;;;;;;6.15;3.05;;;24.60;61.30;;;;;;10868301;32;20035;-74
2023/09/27 18:29:21;;;;;;;13.27;2.28;;;24.40;62.00;;;;;;10867475;32;20054;-75
2023/09/27 18:35:24;;;;;;;3.72;2.15;;;24.40;62.50;;;;;;10866858;32;20032;-75
2023/09/27 18:41:27;;;;;;;3.75;1.98;;;24.30;62.60;;;;;;10863042;32;20040;-75
2023/09/27 18:47:29;;;;;;;5.85;1.98;;;24.30;63.20;;;;;;10867265;32;20035;-75
2023/09/27 18:53:31;;;;;;;2.97;1.80;;;24.20;63.90;;;;;;10809192;32;20113;-75
2023/09/27 18:59:33;;;;;;;4.40;2.00;;;24.00;64.50;;;;;;10790185;33;20020;-74
2023/09/27 19:05:35;;;;;;;3.55;1.92;;;24.00;64.40;;;;;;10790250;33;20033;-75
2023/09/27 19:11:37;;;;;;;3.67;2.00;;;23.90;64.70;;;;;;10790249;33;20020;-75
2023/09/27 19:17:39;;;;;;;3.90;1.90;;;23.80;65.10;;;;;;10789676;33;20055;-74
2023/09/27 19:23:41;;;;;;;4.12;2.10;;;23.80;65.30;;;;;;10789505;32;20040;-75
2023/09/27 19:29:44;;;;;;;3.72;2.37;;;23.70;65.80;;;;;;10769202;33;20040;-74
2023/09/27 19:35:46;;;;;;;7.82;1.95;;;23.70;66.20;;;;;;10785197;33;20032;-75
2023/09/27 19:41:48;;;;;;;5.43;2.10;;;23.60;66.30;;;;;;10789833;33;20025;-75
2023/09/27 19:47:51;;;;;;;3.08;1.73;;;23.60;66.60;;;;;;10789628;33;20056;-74
2023/09/27 19:54:08;;;;;;;7.30;4.30;;;23.50;67.00;;;;;;10790377;33;20412;-74
2023/09/27 20:00:13;;;;;;;4.17;2.23;;;23.40;67.40;;;;;;10787977;33;20043;-74
2023/09/27 20:06:16;;;;;;;3.53;2.50;;;23.50;67.70;;;;;;10783836;33;20024;-74
2023/09/27 20:12:18;;;;;;;5.20;2.65;;;23.40;68.10;;;;;;10789220;33;20354;-74
2023/09/27 20:18:20;;;;;;;3.53;1.85;;;23.40;68.40;;;;;;10786629;33;20064;-75
2023/09/27 20:24:24;;;;;;;4.95;1.92;;;23.30;68.80;;;;;;10787968;33;20021;-75
2023/09/27 20:30:51;;;;;;;4.18;2.80;;;23.30;68.80;;;;;;10788823;33;20043;-74
2023/09/27 20:36:53;;;;;;;5.65;2.42;;;23.30;68.80;;;;;;10787622;33;20024;-75
2023/09/27 20:42:55;;;;;;;6.20;2.12;;;23.20;69.20;;;;;;10787450;33;20017;-74
2023/09/27 20:48:59;;;;;;;9.70;2.20;;;23.20;69.20;;;;;;10783896;33;20021;-74
2023/09/27 20:55:01;;;;;;;3.28;2.12;;;23.10;69.20;;;;;;10787463;33;20435;-74
2023/09/27 21:01:29;;;;;;;4.97;2.87;;;23.00;69.60;;;;;;10786299;33;20020;-74
2023/09/27 21:07:32;;;;;;;3.20;2.20;;;23.00;69.90;;;;;;10787108;33;20008;-74
2023/09/27 21:13:34;;;;;;;3.85;2.17;;;22.90;70.20;;;;;;10786960;33;20036;-74
2023/09/27 21:19:52;;;;;;;4.10;2.28;;;22.90;70.30;;;;;;10785885;33;20024;-74
2023/09/27 21:25:57;;;;;;;2.70;1.62;;;22.80;70.50;;;;;;10786916;33;20024;-70
2023/09/27 21:31:59;;;;;;;3.12;1.95;;;22.80;71.00;;;;;;10786501;33;20012;-70
2023/09/27 21:38:02;;;;;;;4.40;2.37;;;22.80;71.30;;;;;;10784261;32;20059;-69
2023/09/27 21:44:04;;;;;;;3.37;2.22;;;22.80;71.70;;;;;;10749813;33;20017;-70
2023/09/27 21:50:06;;;;;;;2.95;2.03;;;22.70;72.20;;;;;;10775690;33;20047;-69
2023/09/27 21:56:09;;;;;;;2.95;2.00;;;22.70;72.70;;;;;;10790650;33;20390;-69
2023/09/27 22:02:12;;;;;;;3.08;1.92;;;22.70;73.00;;;;;;10778854;33;20028;-69
2023/09/27 22:08:22;;;;;;;3.37;1.73;;;22.60;73.20;;;;;;10789730;33;20322;-69
2023/09/27 22:14:46;;;;;;;3.45;2.25;;;22.70;73.30;;;;;;10792090;33;20016;-70
2023/09/27 22:20:49;;;;;;;3.75;1.90;;;22.60;73.80;;;;;;10792581;33;20382;-69
2023/09/27 22:26:53;;;;;;;4.50;1.98;;;22.60;74.40;;;;;;10792385;33;20308;-69
2023/09/27 22:33:02;;;;;;;2.03;1.45;;;22.50;74.60;;;;;;10792361;33;20025;-69
2023/09/27 22:39:10;;;;;;;1.70;1.55;;;22.50;74.70;;;;;;10792113;33;20405;-70
2023/09/27 22:45:34;;;;;;;2.55;1.75;;;22.50;75.00;;;;;;10793126;33;20035;-69
2023/09/27 22:51:38;;;;;;;5.60;1.73;;;22.40;75.40;;;;;;10738208;27;7509792;-69
2023/09/27 22:57:43;;;;;;;4.25;2.83;;;22.30;75.70;;;;;;10971027;32;20077;-69
2023/09/27 23:03:47;;;;;;;2.90;1.60;;;22.30;75.60;;;;;;10982687;32;20026;-69
2023/09/27 23:10:02;;;;;;;4.72;2.40;;;22.20;75.50;;;;;;10984544;32;20018;-69
2023/09/27 23:16:29;;;;;;;3.62;1.98;;;22.30;75.50;;;;;;10983875;32;20052;-69
2023/09/27 23:22:49;;;;;;;3.15;2.20;;;22.20;75.50;;;;;;10982273;32;20057;-69
2023/09/27 23:29:32;;;;;;;4.00;2.78;;;22.10;75.50;;;;;;10982099;32;20369;-69
2023/09/27 23:35:12;;;;;;;3.20;2.25;;;22.00;75.60;;;;;;10977768;32;20030;-69
2023/09/27 23:41:15;;;;;;;2.08;1.55;;;22.00;75.80;;;;;;10981635;32;20030;-69
2023/09/27 23:47:22;;;;;;;2.83;1.87;;;21.90;75.80;;;;;;10948680;32;20028;-69
2023/09/27 23:53:24;;;;;;;2.87;1.48;;;21.80;76.30;;;;;;10826691;33;20394;-69
2023/09/27 23:59:30;;;;;;;4.65;2.22;;;21.90;76.30;;;;;;10823171;33;20042;-69
